Time,TemperatureF,DewpointF,PressureIn,WindDirection,WindDirectionDegrees,WindSpeedMPH,WindSpeedGustMPH,Humidity,HourlyPrecipIn,Conditions,Clouds,dailyrainin,SoftwareType,DateUTC
2013-11-30 00:00:00,23.1,15.1,30.73,North,349,0.0,15.0,71,0.00,,,0.00,Wunderground v.1.15,2013-11-30 05:00:00,
2013-11-30 00:05:00,22.8,15.1,30.72,WNW,295,0.0,15.0,72,0.00,,,0.00,Wunderground v.1.15,2013-11-30 05:05:00,
2013-11-30 00:10:00,22.5,14.8,30.72,WNW,290,1.0,15.0,72,0.00,,,0.00,Wunderground v.1.15,2013-11-30 05:10:00,
2013-11-30 00:15:00,22.4,15.1,30.73,WNW,294,1.0,15.0,73,0.00,,,0.00,Wunderground v.1.15,2013-11-30 05:15:00,
2013-11-30 00:25:00,22.0,15.0,30.72,WNW,294,0.0,15.0,74,0.00,,,0.00,Wunderground v.1.15,2013-11-30 05:25:00,
2013-11-30 00:30:00,21.9,14.9,30.72,WNW,294,0.0,15.0,74,0.00,,,0.00,Wunderground v.1.15,2013-11-30 05:30:00,
2013-11-30 00:35:00,21.8,14.8,30.73,WNW,294,0.0,15.0,74,0.00,,,0.00,Wunderground v.1.15,2013-11-30 05:35:00,
2013-11-30 00:45:00,21.3,14.3,30.73,WNW,293,0.0,15.0,74,0.00,,,0.00,Wunderground v.1.15,2013-11-30 05:45:00,
2013-11-30 00:55:00,20.8,14.4,30.73,WNW,294,0.0,15.0,76,0.00,,,0.00,Wunderground v.1.15,2013-11-30 05:55:00,
2013-11-30 01:00:00,20.5,14.4,30.73,WNW,289,0.0,15.0,77,0.00,,,0.00,Wunderground v.1.15,2013-11-30 06:00:00,
2013-11-30 01:10:00,19.8,14.0,30.73,WNW,282,0.0,15.0,78,0.00,,,0.00,Wunderground v.1.15,2013-11-30 06:10:00,
2013-11-30 01:15:00,19.7,14.0,30.74,West,281,0.0,15.0,78,0.00,,,0.00,Wunderground v.1.15,2013-11-30 06:15:00,
2013-11-30 01:20:00,19.5,13.8,30.74,West,281,0.0,15.0,78,0.00,,,0.00,Wunderground v.1.15,2013-11-30 06:20:00,
2013-11-30 01:30:00,19.2,14.0,30.75,West,281,0.0,15.0,80,0.00,,,0.00,Wunderground v.1.15,2013-11-30 06:30:00,
2013-11-30 01:40:00,19.1,14.5,30.75,West,281,0.0,15.0,82,0.00,,,0.00,Wunderground v.1.15,2013-11-30 06:40:00,
2013-11-30 01:45:00,19.1,14.5,30.75,West,281,0.0,15.0,82,0.00,,,0.00,Wunderground v.1.15,2013-11-30 06:45:00,
2013-11-30 01:50:00,19.1,14.5,30.75,West,281,0.0,15.0,82,0.00,,,0.00,Wunderground v.1.15,2013-11-30 06:50:00,
2013-11-30 02:00:00,19.3,15.0,30.75,WNW,282,0.0,15.0,83,0.00,,,0.00,Wunderground v.1.15,2013-11-30 07:00:00,
2013-11-30 02:10:00,19.5,15.7,30.75,NW,306,0.0,15.0,85,0.00,,,0.00,Wunderground v.1.15,2013-11-30 07:10:00,
2013-11-30 02:15:00,19.4,15.4,30.75,NW,306,0.0,15.0,84,0.00,,,0.00,Wunderground v.1.15,2013-11-30 07:15:00,
2013-11-30 02:20:00,19.2,15.4,30.75,NW,306,0.0,15.0,85,0.00,,,0.00,Wunderground v.1.15,2013-11-30 07:20:00,
2013-11-30 02:30:00,19.1,15.6,30.75,NW,304,0.0,15.0,86,0.00,,,0.00,Wunderground v.1.15,2013-11-30 07:30:00,
2013-11-30 02:40:00,18.7,15.5,30.75,NW,304,0.0,15.0,87,0.00,,,0.00,Wunderground v.1.15,2013-11-30 07:40:00,
2013-11-30 02:50:00,18.5,15.3,30.75,NW,304,0.0,15.0,87,0.00,,,0.00,Wunderground v.1.15,2013-11-30 07:50:00,
2013-11-30 03:00:00,18.1,14.9,30.75,NW,304,0.0,15.0,87,0.00,,,0.00,Wunderground v.1.15,2013-11-30 08:00:00,
2013-11-30 03:10:00,17.8,14.8,30.75,NW,304,0.0,15.0,88,0.00,,,0.00,Wunderground v.1.15,2013-11-30 08:10:00,
2013-11-30 03:15:00,17.7,14.5,30.75,NW,304,0.0,15.0,87,0.00,,,0.00,Wunderground v.1.15,2013-11-30 08:15:00,
2013-11-30 03:25:00,17.3,13.8,30.75,NW,304,0.0,15.0,86,0.00,,,0.00,Wunderground v.1.15,2013-11-30 08:25:00,
2013-11-30 03:30:00,17.5,13.8,30.74,NW,304,0.0,15.0,85,0.00,,,0.00,Wunderground v.1.15,2013-11-30 08:30:00,
2013-11-30 03:40:00,17.7,13.1,30.74,WNW,293,0.0,15.0,82,0.00,,,0.00,Wunderground v.1.15,2013-11-30 08:40:00,
2013-11-30 03:45:00,17.8,13.8,30.74,NNW,340,0.0,15.0,84,0.00,,,0.00,Wunderground v.1.15,2013-11-30 08:45:00,
2013-11-30 03:55:00,17.8,13.8,30.75,NNW,340,0.0,15.0,84,0.00,,,0.00,Wunderground v.1.15,2013-11-30 08:55:00,
2013-11-30 04:05:00,17.5,13.2,30.75,WNW,302,0.0,15.0,83,0.00,,,0.00,Wunderground v.1.15,2013-11-30 09:05:00,
2013-11-30 04:10:00,17.5,12.9,30.75,WNW,302,0.0,15.0,82,0.00,,,0.00,Wunderground v.1.15,2013-11-30 09:10:00,
2013-11-30 04:20:00,17.2,12.4,30.75,WNW,302,0.0,15.0,81,0.00,,,0.00,Wunderground v.1.15,2013-11-30 09:20:00,
2013-11-30 04:25:00,16.9,12.4,30.75,WNW,302,0.0,15.0,82,0.00,,,0.00,Wunderground v.1.15,2013-11-30 09:25:00,
2013-11-30 04:35:00,16.3,12.3,30.75,WNW,302,0.0,15.0,84,0.00,,,0.00,Wunderground v.1.15,2013-11-30 09:35:00,
2013-11-30 04:45:00,16.6,12.3,30.75,WNW,293,0.0,15.0,83,0.00,,,0.00,Wunderground v.1.15,2013-11-30 09:45:00,
2013-11-30 04:50:00,16.9,12.4,30.75,WNW,293,0.0,15.0,82,0.00,,,0.00,Wunderground v.1.15,2013-11-30 09:50:00,
2013-11-30 05:00:00,17.0,12.5,30.76,WNW,294,0.0,15.0,82,0.00,,,0.00,Wunderground v.1.15,2013-11-30 10:00:00,
2013-11-30 05:10:00,16.9,12.4,30.76,WNW,291,0.0,15.0,82,0.00,,,0.00,Wunderground v.1.15,2013-11-30 10:10:00,
2013-11-30 05:15:00,16.7,12.4,30.76,WNW,291,0.0,15.0,83,0.00,,,0.00,Wunderground v.1.15,2013-11-30 10:15:00,
2013-11-30 05:25:00,16.7,12.4,30.76,WNW,291,0.0,15.0,83,0.00,,,0.00,Wunderground v.1.15,2013-11-30 10:25:00,
2013-11-30 05:35:00,16.7,12.4,30.76,NW,311,0.0,15.0,83,0.00,,,0.00,Wunderground v.1.15,2013-11-30 10:35:00,
2013-11-30 05:40:00,16.6,12.3,30.76,NW,312,0.0,15.0,83,0.00,,,0.00,Wunderground v.1.15,2013-11-30 10:40:00,
2013-11-30 05:50:00,16.4,12.1,30.76,NW,311,0.0,15.0,83,0.00,,,0.00,Wunderground v.1.15,2013-11-30 10:50:00,
2013-11-30 05:55:00,16.4,12.1,30.76,WNW,295,0.0,15.0,83,0.00,,,0.00,Wunderground v.1.15,2013-11-30 10:55:00,
2013-11-30 06:05:00,16.3,11.8,30.77,WNW,291,0.0,15.0,82,0.00,,,0.00,Wunderground v.1.15,2013-11-30 11:05:00,
2013-11-30 06:10:00,16.2,11.7,30.77,WSW,237,0.0,15.0,82,0.00,,,0.00,Wunderground v.1.15,2013-11-30 11:10:00,
2013-11-30 06:15:00,16.1,11.6,30.77,WSW,238,0.0,15.0,82,0.00,,,0.00,Wunderground v.1.15,2013-11-30 11:15:00,
2013-11-30 06:25:00,15.9,11.1,30.77,WSW,238,0.0,15.0,81,0.00,,,0.00,Wunderground v.1.15,2013-11-30 11:25:00,
2013-11-30 06:35:00,15.9,10.8,30.77,West,264,0.0,15.0,80,0.00,,,0.00,Wunderground v.1.15,2013-11-30 11:35:00,
2013-11-30 06:45:00,15.9,10.5,30.77,WNW,288,0.0,15.0,79,0.00,,,0.00,Wunderground v.1.15,2013-11-30 11:45:00,
2013-11-30 06:55:00,16.0,10.9,30.77,WNW,288,0.0,15.0,80,0.00,,,0.00,Wunderground v.1.15,2013-11-30 11:55:00,
2013-11-30 07:05:00,15.9,11.1,30.78,WNW,288,0.0,15.0,81,0.00,,,0.00,Wunderground v.1.15,2013-11-30 12:05:00,
2013-11-30 07:15:00,15.9,11.1,30.77,WNW,288,0.0,15.0,81,0.00,,,0.00,Wunderground v.1.15,2013-11-30 12:15:00,
2013-11-30 07:25:00,16.1,11.6,30.78,WNW,283,0.0,15.0,82,0.00,,,0.00,Wunderground v.1.15,2013-11-30 12:25:00,
2013-11-30 07:35:00,16.8,12.0,30.78,WNW,284,0.0,15.0,81,0.00,,,0.00,Wunderground v.1.15,2013-11-30 12:35:00,
2013-11-30 07:40:00,17.5,12.4,30.77,WNW,295,0.0,15.0,80,0.00,,,0.00,Wunderground v.1.15,2013-11-30 12:40:00,
2013-11-30 07:50:00,18.2,12.5,30.77,WNW,300,0.0,15.0,78,0.00,,,0.00,Wunderground v.1.15,2013-11-30 12:50:00,
2013-11-30 07:55:00,18.5,12.2,30.77,NNW,342,0.0,15.0,76,0.00,,,0.00,Wunderground v.1.15,2013-11-30 12:55:00,
2013-11-30 08:05:00,18.9,12.0,30.77,WNW,299,1.0,15.0,74,0.00,,,0.00,Wunderground v.1.15,2013-11-30 13:05:00,
2013-11-30 08:10:00,19.2,12.3,30.77,WNW,297,1.0,15.0,74,0.00,,,0.00,Wunderground v.1.15,2013-11-30 13:10:00,
2013-11-30 08:15:00,19.7,12.8,30.77,NNW,331,1.0,15.0,74,0.00,,,0.00,Wunderground v.1.15,2013-11-30 13:15:00,
2013-11-30 08:20:00,20.2,13.2,30.77,NW,324,1.0,15.0,74,0.00,,,0.00,Wunderground v.1.15,2013-11-30 13:20:00,
2013-11-30 08:30:00,20.3,12.4,30.77,WNW,284,2.0,2.0,71,0.00,,,0.00,Wunderground v.1.15,2013-11-30 13:30:00,
2013-11-30 08:40:00,20.8,12.9,30.77,WNW,295,2.0,15.0,71,0.00,,,0.00,Wunderground v.1.15,2013-11-30 13:40:00,
2013-11-30 08:50:00,21.5,13.2,30.78,NNE,18,2.0,15.0,70,0.00,,,0.00,Wunderground v.1.15,2013-11-30 13:50:00,
2013-11-30 09:00:00,22.2,13.2,30.78,NW,318,2.0,15.0,68,0.00,,,0.00,Wunderground v.1.15,2013-11-30 14:00:00,
2013-11-30 09:10:00,23.2,12.1,30.78,NNE,16,3.0,3.0,62,0.00,,,0.00,Wunderground v.1.15,2013-11-30 14:10:00,
2013-11-30 09:15:00,23.5,12.7,30.78,NNE,25,3.0,4.0,63,0.00,,,0.00,Wunderground v.1.15,2013-11-30 14:15:00,
2013-11-30 09:20:00,23.7,12.2,30.78,NE,49,3.0,15.0,61,0.00,,,0.00,Wunderground v.1.15,2013-11-30 14:20:00,
2013-11-30 09:30:00,23.9,11.6,30.78,ENE,62,4.0,4.0,59,0.00,,,0.00,Wunderground v.1.15,2013-11-30 14:30:00,
2013-11-30 09:40:00,24.2,11.5,30.77,North,357,3.0,15.0,58,0.00,,,0.00,Wunderground v.1.15,2013-11-30 14:40:00,
2013-11-30 09:50:00,24.8,11.7,30.77,NNE,25,3.0,3.0,57,0.00,,,0.00,Wunderground v.1.15,2013-11-30 14:50:00,
2013-11-30 10:00:00,25.3,11.8,30.77,NE,54,4.0,15.0,56,0.00,,,0.00,Wunderground v.1.15,2013-11-30 15:00:00,
2013-11-30 10:05:00,25.4,11.0,30.77,NE,41,4.0,15.0,54,0.00,,,0.00,Wunderground v.1.15,2013-11-30 15:05:00,
2013-11-30 10:10:00,25.5,11.1,30.76,North,360,3.0,3.0,54,0.00,,,0.00,Wunderground v.1.15,2013-11-30 15:10:00,
2013-11-30 10:15:00,25.9,11.5,30.76,NNW,337,3.0,15.0,54,0.00,,,0.00,Wunderground v.1.15,2013-11-30 15:15:00,
2013-11-30 10:25:00,26.7,12.3,30.76,NW,321,2.0,15.0,54,0.00,,,0.00,Wunderground v.1.15,2013-11-30 15:25:00,
2013-11-30 10:35:00,27.4,12.5,30.75,NW,326,2.0,15.0,53,0.00,,,0.00,Wunderground v.1.15,2013-11-30 15:35:00,
2013-11-30 10:45:00,27.8,12.4,30.75,North,5,1.0,15.0,52,0.00,,,0.00,Wunderground v.1.15,2013-11-30 15:45:00,
2013-11-30 10:55:00,28.1,13.6,30.74,ESE,103,2.0,15.0,54,0.00,,,0.00,Wunderground v.1.15,2013-11-30 15:55:00,
2013-11-30 11:05:00,28.3,14.6,30.74,NE,49,3.0,15.0,56,0.00,,,0.00,Wunderground v.1.15,2013-11-30 16:05:00,
2013-11-30 11:10:00,28.5,14.4,30.74,SE,132,3.0,3.0,55,0.00,,,0.00,Wunderground v.1.15,2013-11-30 16:10:00,
2013-11-30 11:15:00,28.8,14.2,30.73,ESE,104,3.0,15.0,54,0.00,,,0.00,Wunderground v.1.15,2013-11-30 16:15:00,
2013-11-30 11:25:00,29.4,15.6,30.73,ENE,77,1.0,15.0,56,0.00,,,0.00,Wunderground v.1.15,2013-11-30 16:25:00,
2013-11-30 11:35:00,29.4,15.2,30.72,NE,45,3.0,15.0,55,0.00,,,0.00,Wunderground v.1.15,2013-11-30 16:35:00,
2013-11-30 11:45:00,29.6,16.2,30.72,ESE,122,2.0,15.0,57,0.00,,,0.00,Wunderground v.1.15,2013-11-30 16:45:00,
2013-11-30 11:55:00,29.8,15.6,30.72,SE,135,3.0,15.0,55,0.00,,,0.00,Wunderground v.1.15,2013-11-30 16:55:00,
2013-11-30 12:05:00,30.0,15.8,30.71,NNE,33,2.0,15.0,55,0.00,,,0.00,Wunderground v.1.15,2013-11-30 17:05:00,
2013-11-30 12:10:00,30.2,16.0,30.70,SSE,165,2.0,15.0,55,0.00,,,0.00,Wunderground v.1.15,2013-11-30 17:10:00,
2013-11-30 12:20:00,30.4,15.7,30.70,SE,128,3.0,15.0,54,0.00,,,0.00,Wunderground v.1.15,2013-11-30 17:20:00,
2013-11-30 12:25:00,30.7,15.6,30.70,SSW,194,3.0,15.0,53,0.00,,,0.00,Wunderground v.1.15,2013-11-30 17:25:00,
2013-11-30 12:35:00,31.2,15.6,30.69,SW,229,2.0,15.0,52,0.00,,,0.00,Wunderground v.1.15,2013-11-30 17:35:00,
2013-11-30 12:45:00,31.7,14.2,30.68,SE,134,2.0,4.0,48,0.00,,,0.00,Wunderground v.1.15,2013-11-30 17:45:00,
2013-11-30 12:55:00,31.6,14.6,30.68,SW,228,2.0,15.0,49,0.00,,,0.00,Wunderground v.1.15,2013-11-30 17:55:00,
2013-11-30 13:00:00,31.8,13.8,30.68,SSE,153,1.0,15.0,47,0.00,,,0.00,Wunderground v.1.15,2013-11-30 18:00:00,
2013-11-30 13:10:00,31.5,13.6,30.67,SE,141,3.0,3.0,47,0.00,,,0.00,Wunderground v.1.15,2013-11-30 18:10:00,
2013-11-30 13:20:00,31.5,13.6,30.67,SSW,207,3.0,3.0,47,0.00,,,0.00,Wunderground v.1.15,2013-11-30 18:20:00,
2013-11-30 13:30:00,31.6,12.2,30.66,SE,131,2.0,15.0,44,0.00,,,0.00,Wunderground v.1.15,2013-11-30 18:30:00,
2013-11-30 13:40:00,32.2,12.2,30.66,SE,135,3.0,3.0,43,0.00,,,0.00,Wunderground v.1.15,2013-11-30 18:40:00,
2013-11-30 13:50:00,31.8,12.3,30.65,ENE,76,3.0,3.0,44,0.00,,,0.00,Wunderground v.1.15,2013-11-30 18:50:00,
2013-11-30 14:00:00,31.9,13.4,30.64,SE,128,2.0,2.0,46,0.00,,,0.00,Wunderground v.1.15,2013-11-30 19:00:00,
2013-11-30 14:10:00,32.1,14.1,30.64,SE,127,2.0,15.0,47,0.00,,,0.00,Wunderground v.1.15,2013-11-30 19:10:00,
2013-11-30 14:15:00,32.1,15.5,30.64,SSE,148,2.0,15.0,50,0.00,,,0.00,Wunderground v.1.15,2013-11-30 19:15:00,
2013-11-30 14:25:00,32.0,13.5,30.64,ENE,78,2.0,4.0,46,0.00,,,0.00,Wunderground v.1.15,2013-11-30 19:25:00,
2013-11-30 14:35:00,31.8,16.6,30.64,ESE,120,3.0,5.0,53,0.00,,,0.00,Wunderground v.1.15,2013-11-30 19:35:00,
2013-11-30 14:40:00,31.6,17.7,30.64,ESE,105,3.0,3.0,56,0.00,,,0.00,Wunderground v.1.15,2013-11-30 19:40:00,
2013-11-30 14:50:00,31.7,17.8,30.64,SE,136,2.0,2.0,56,0.00,,,0.00,Wunderground v.1.15,2013-11-30 19:50:00,
2013-11-30 14:55:00,31.7,18.6,30.63,SE,137,2.0,15.0,58,0.00,,,0.00,Wunderground v.1.15,2013-11-30 19:55:00,
2013-11-30 15:05:00,31.6,18.9,30.63,SE,134,2.0,3.0,59,0.00,,,0.00,Wunderground v.1.15,2013-11-30 20:05:00,
2013-11-30 15:10:00,31.5,19.2,30.63,SE,130,2.0,15.0,60,0.00,,,0.00,Wunderground v.1.15,2013-11-30 20:10:00,
2013-11-30 15:20:00,31.4,19.1,30.63,SSW,200,2.0,2.0,60,0.00,,,0.00,Wunderground v.1.15,2013-11-30 20:20:00,
2013-11-30 15:25:00,31.4,19.9,30.63,SSW,200,1.0,15.0,62,0.00,,,0.00,Wunderground v.1.15,2013-11-30 20:25:00,
2013-11-30 15:35:00,31.2,20.4,30.63,South,176,1.0,15.0,64,0.00,,,0.00,Wunderground v.1.15,2013-11-30 20:35:00,
2013-11-30 15:45:00,31.1,20.7,30.62,SE,131,1.0,15.0,65,0.00,,,0.00,Wunderground v.1.15,2013-11-30 20:45:00,
2013-11-30 15:55:00,30.8,20.8,30.62,SE,139,0.0,15.0,66,0.00,,,0.00,Wunderground v.1.15,2013-11-30 20:55:00,
2013-11-30 16:05:00,30.4,20.4,30.61,SE,139,0.0,15.0,66,0.00,,,0.00,Wunderground v.1.15,2013-11-30 21:05:00,
2013-11-30 16:15:00,29.8,20.5,30.61,SE,139,0.0,15.0,68,0.00,,,0.00,Wunderground v.1.15,2013-11-30 21:15:00,
2013-11-30 16:20:00,29.6,20.3,30.61,SE,139,0.0,15.0,68,0.00,,,0.00,Wunderground v.1.15,2013-11-30 21:20:00,
2013-11-30 16:30:00,29.3,20.4,30.61,SE,139,0.0,15.0,69,0.00,,,0.00,Wunderground v.1.15,2013-11-30 21:30:00,
2013-11-30 16:40:00,29.0,20.1,30.61,SE,138,0.0,15.0,69,0.00,,,0.00,Wunderground v.1.15,2013-11-30 21:40:00,
2013-11-30 16:50:00,28.8,20.6,30.60,SE,138,0.0,15.0,71,0.00,,,0.00,Wunderground v.1.15,2013-11-30 21:50:00,
2013-11-30 17:00:00,28.7,20.5,30.60,SE,138,0.0,15.0,71,0.00,,,0.00,Wunderground v.1.15,2013-11-30 22:00:00,
2013-11-30 17:10:00,28.3,20.4,30.60,SE,138,0.0,15.0,72,0.00,,,0.00,Wunderground v.1.15,2013-11-30 22:10:00,
2013-11-30 17:15:00,28.2,20.7,30.59,SE,139,0.0,15.0,73,0.00,,,0.00,Wunderground v.1.15,2013-11-30 22:15:00,
2013-11-30 17:20:00,28.0,20.5,30.59,SE,139,0.0,15.0,73,0.00,,,0.00,Wunderground v.1.15,2013-11-30 22:20:00,
2013-11-30 17:30:00,27.7,20.5,30.59,SE,138,0.0,15.0,74,0.00,,,0.00,Wunderground v.1.15,2013-11-30 22:30:00,
2013-11-30 17:40:00,27.5,20.6,30.58,SE,138,0.0,15.0,75,0.00,,,0.00,Wunderground v.1.15,2013-11-30 22:40:00,
2013-11-30 17:50:00,27.4,21.1,30.58,SE,138,0.0,15.0,77,0.00,,,0.00,Wunderground v.1.15,2013-11-30 22:50:00,
2013-11-30 18:00:00,27.2,21.5,30.58,SE,139,0.0,15.0,79,0.00,,,0.00,Wunderground v.1.15,2013-11-30 23:00:00,
2013-11-30 18:10:00,27.2,21.2,30.57,SE,138,0.0,15.0,78,0.00,,,0.00,Wunderground v.1.15,2013-11-30 23:10:00,
2013-11-30 18:20:00,27.0,21.4,30.57,SE,140,0.0,15.0,79,0.00,,,0.00,Wunderground v.1.15,2013-11-30 23:20:00,
2013-11-30 18:30:00,26.8,21.5,30.57,SE,140,0.0,15.0,80,0.00,,,0.00,Wunderground v.1.15,2013-11-30 23:30:00,
2013-11-30 18:40:00,26.6,21.6,30.56,SE,139,0.0,15.0,81,0.00,,,0.00,Wunderground v.1.15,2013-11-30 23:40:00,
2013-11-30 18:50:00,26.5,21.5,30.56,SE,139,0.0,15.0,81,0.00,,,0.00,Wunderground v.1.15,2013-11-30 23:50:00,
2013-11-30 18:55:00,26.5,21.5,30.56,SE,139,0.0,15.0,81,0.00,,,0.00,Wunderground v.1.15,2013-11-30 23:55:00,
2013-11-30 19:00:00,26.3,21.3,30.56,SE,139,0.0,15.0,81,0.00,,,0.00,Wunderground v.1.15,2013-12-01 00:00:00,
2013-11-30 19:10:00,26.0,21.5,30.56,SE,139,0.0,15.0,83,0.00,,,0.00,Wunderground v.1.15,2013-12-01 00:10:00,
2013-11-30 19:15:00,25.9,21.4,30.55,SE,139,0.0,15.0,83,0.00,,,0.00,Wunderground v.1.15,2013-12-01 00:15:00,
2013-11-30 19:25:00,25.7,21.3,30.55,SE,139,0.0,15.0,83,0.00,,,0.00,Wunderground v.1.15,2013-12-01 00:25:00,
2013-11-30 19:35:00,25.7,21.5,30.55,SE,139,0.0,15.0,84,0.00,,,0.00,Wunderground v.1.15,2013-12-01 00:35:00,
2013-11-30 19:40:00,25.8,21.9,30.54,SE,140,0.0,15.0,85,0.00,,,0.00,Wunderground v.1.15,2013-12-01 00:40:00,
2013-11-30 19:50:00,26.0,22.1,30.53,SE,139,0.0,15.0,85,0.00,,,0.00,Wunderground v.1.15,2013-12-01 00:50:00,
2013-11-30 19:55:00,26.2,22.3,30.53,SW,225,0.0,15.0,85,0.00,,,0.00,Wunderground v.1.15,2013-12-01 00:55:00,
2013-11-30 20:05:00,26.8,22.9,30.52,SW,224,0.0,15.0,85,0.00,,,0.00,Wunderground v.1.15,2013-12-01 01:05:00,
2013-11-30 20:10:00,27.0,23.1,30.51,SW,223,0.0,15.0,85,0.00,,,0.00,Wunderground v.1.15,2013-12-01 01:10:00,
2013-11-30 20:15:00,27.4,23.2,30.51,ESE,110,0.0,15.0,84,0.00,,,0.00,Wunderground v.1.15,2013-12-01 01:15:00,
2013-11-30 20:25:00,28.1,23.9,30.51,ESE,110,0.0,15.0,84,0.00,,,0.00,Wunderground v.1.15,2013-12-01 01:25:00,
2013-11-30 20:35:00,28.4,23.9,30.51,ESE,110,0.0,15.0,83,0.00,,,0.00,Wunderground v.1.15,2013-12-01 01:35:00,
2013-11-30 20:45:00,28.8,24.0,30.51,ESE,110,0.0,15.0,82,0.00,,,0.00,Wunderground v.1.15,2013-12-01 01:45:00,
2013-11-30 20:55:00,29.1,24.3,30.50,ESE,110,0.0,15.0,82,0.00,,,0.00,Wunderground v.1.15,2013-12-01 01:55:00,
2013-11-30 21:05:00,29.2,24.1,30.50,ESE,110,0.0,15.0,81,0.00,,,0.00,Wunderground v.1.15,2013-12-01 02:05:00,
2013-11-30 21:10:00,29.2,24.1,30.50,ESE,110,0.0,15.0,81,0.00,,,0.00,Wunderground v.1.15,2013-12-01 02:10:00,
2013-11-30 21:15:00,29.4,24.3,30.49,ESE,110,0.0,15.0,81,0.00,,,0.00,Wunderground v.1.15,2013-12-01 02:15:00,
2013-11-30 21:25:00,29.6,24.2,30.49,ESE,112,0.0,15.0,80,0.00,,,0.00,Wunderground v.1.15,2013-12-01 02:25:00,
2013-11-30 21:30:00,29.7,24.3,30.49,ESE,112,0.0,15.0,80,0.00,,,0.00,Wunderground v.1.15,2013-12-01 02:30:00,
2013-11-30 21:40:00,29.8,24.4,30.49,ESE,111,0.0,15.0,80,0.00,,,0.00,Wunderground v.1.15,2013-12-01 02:40:00,
2013-11-30 21:50:00,29.9,24.5,30.48,ESE,106,0.0,15.0,80,0.00,,,0.00,Wunderground v.1.15,2013-12-01 02:50:00,
2013-11-30 22:00:00,30.1,24.7,30.48,West,264,0.0,15.0,80,0.00,,,0.00,Wunderground v.1.15,2013-12-01 03:00:00,
2013-11-30 22:10:00,30.3,24.9,30.48,West,262,0.0,15.0,80,0.00,,,0.00,Wunderground v.1.15,2013-12-01 03:10:00,
2013-11-30 22:15:00,30.4,25.0,30.47,West,262,0.0,15.0,80,0.00,,,0.00,Wunderground v.1.15,2013-12-01 03:15:00,
2013-11-30 22:25:00,30.5,24.8,30.47,West,262,0.0,15.0,79,0.00,,,0.00,Wunderground v.1.15,2013-12-01 03:25:00,
2013-11-30 22:35:00,30.7,25.0,30.46,West,261,0.0,15.0,79,0.00,,,0.00,Wunderground v.1.15,2013-12-01 03:35:00,
2013-11-30 22:45:00,30.8,25.1,30.46,West,263,0.0,15.0,79,0.00,,,0.00,Wunderground v.1.15,2013-12-01 03:45:00,
2013-11-30 22:55:00,31.0,25.6,30.45,South,191,0.0,15.0,80,0.00,,,0.00,Wunderground v.1.15,2013-12-01 03:55:00,
2013-11-30 23:05:00,31.0,25.6,30.45,South,173,0.0,15.0,80,0.00,,,0.00,Wunderground v.1.15,2013-12-01 04:05:00,
2013-11-30 23:10:00,31.1,25.3,30.44,SSE,166,0.0,15.0,79,0.00,,,0.00,Wunderground v.1.15,2013-12-01 04:10:00,
2013-11-30 23:20:00,31.2,25.7,30.44,SSW,205,0.0,15.0,80,0.00,,,0.00,Wunderground v.1.15,2013-12-01 04:20:00,
2013-11-30 23:25:00,31.3,25.8,30.44,SSW,205,0.0,15.0,80,0.00,,,0.00,Wunderground v.1.15,2013-12-01 04:25:00,
2013-11-30 23:35:00,31.4,25.9,30.43,SSW,205,0.0,15.0,80,0.00,,,0.00,Wunderground v.1.15,2013-12-01 04:35:00,
2013-11-30 23:40:00,31.4,25.9,30.43,SSW,205,0.0,15.0,80,0.00,,,0.00,Wunderground v.1.15,2013-12-01 04:40:00,
2013-11-30 23:50:00,31.6,26.7,30.42,SSW,206,0.0,15.0,82,0.00,,,0.00,Wunderground v.1.15,2013-12-01 04:50:00,